createdAt,value
2018-10-18T00:00:07.081Z,15.50
2018-10-18T00:02:36.409Z,15.39
2018-10-18T00:05:07.177Z,15.20
2018-10-18T00:07:36.714Z,15.23
2018-10-18T00:10:07.640Z,15.13
2018-10-18T00:12:36.791Z,15.14
2018-10-18T00:15:07.016Z,15.08
2018-10-18T00:17:41.040Z,15.09
2018-10-18T00:20:10.362Z,15.22
2018-10-18T00:22:39.404Z,15.24
2018-10-18T00:25:08.610Z,15.13
2018-10-18T00:27:38.367Z,15.27
2018-10-18T00:30:09.719Z,15.44
2018-10-18T00:32:38.857Z,15.60
2018-10-18T00:35:08.442Z,15.56
2018-10-18T00:40:19.460Z,15.55
2018-10-18T00:42:48.720Z,15.57
2018-10-18T00:45:17.922Z,15.62
2018-10-18T00:47:47.225Z,15.80
2018-10-18T00:50:16.463Z,15.79
2018-10-18T00:52:45.848Z,15.92
2018-10-18T00:55:15.544Z,15.89
2018-10-18T00:57:44.645Z,15.95
2018-10-18T01:00:13.985Z,15.99
2018-10-18T01:02:43.399Z,15.92
2018-10-18T01:05:12.902Z,15.85
2018-10-18T01:07:42.090Z,15.87
2018-10-18T01:10:11.217Z,15.96
2018-10-18T01:12:40.531Z,15.94
2018-10-18T01:15:09.591Z,16.13
2018-10-18T01:17:39.049Z,15.93
2018-10-18T01:20:08.267Z,15.83
2018-10-18T01:22:37.451Z,15.80
2018-10-18T01:25:07.358Z,15.80
2018-10-18T01:27:36.431Z,15.67
2018-10-18T01:30:06.066Z,15.70
2018-10-18T01:32:35.697Z,15.72
2018-10-18T01:35:04.841Z,15.70
2018-10-18T01:37:33.918Z,15.63
2018-10-18T01:40:03.349Z,15.63
2018-10-18T01:42:32.470Z,15.55
2018-10-18T01:45:01.664Z,15.62
2018-10-18T01:47:30.847Z,15.68
2018-10-18T01:49:59.904Z,15.77
2018-10-18T01:52:29.091Z,15.76
2018-10-18T01:54:58.476Z,15.67
2018-10-18T01:57:27.542Z,15.42
2018-10-18T01:59:56.786Z,15.35
2018-10-18T02:02:25.900Z,15.31
2018-10-18T02:04:55.106Z,15.55
2018-10-18T02:07:24.353Z,15.56
2018-10-18T02:09:53.889Z,15.57
2018-10-18T02:12:23.000Z,15.57
2018-10-18T02:14:52.572Z,15.68
2018-10-18T02:17:21.703Z,15.61
2018-10-18T02:19:50.846Z,15.53
2018-10-18T02:22:20.076Z,15.58
2018-10-18T02:24:49.728Z,15.59
2018-10-18T02:27:18.904Z,15.69
2018-10-18T02:29:48.036Z,15.81
2018-10-18T02:32:17.487Z,15.86
2018-10-18T02:34:46.620Z,15.82
2018-10-18T02:37:16.024Z,15.83
2018-10-18T02:39:45.538Z,15.87
2018-10-18T02:42:14.652Z,15.94
2018-10-18T02:44:43.770Z,15.99
2018-10-18T02:47:12.861Z,16.02
2018-10-18T02:49:42.190Z,15.85
2018-10-18T02:52:11.712Z,15.86
2018-10-18T02:54:41.274Z,15.64
2018-10-18T02:57:10.422Z,15.61
2018-10-18T02:59:39.865Z,15.41
2018-10-18T03:02:09.456Z,15.37
2018-10-18T03:04:38.697Z,15.34
2018-10-18T03:07:08.149Z,15.21
2018-10-18T03:09:37.445Z,15.12
2018-10-18T03:12:19.726Z,14.99
2018-10-18T03:14:49.159Z,15.19
2018-10-18T03:17:18.342Z,15.04
2018-10-18T03:19:47.552Z,15.13
2018-10-18T03:22:16.769Z,15.28
2018-10-18T03:24:45.926Z,15.17
2018-10-18T03:27:15.518Z,15.32
2018-10-18T03:29:45.146Z,15.28
2018-10-18T03:32:14.763Z,15.21
2018-10-18T03:34:43.847Z,15.13
2018-10-18T03:37:13.089Z,15.22
2018-10-18T03:39:42.553Z,15.28
2018-10-18T03:42:11.740Z,15.23
2018-10-18T03:44:40.929Z,15.05
2018-10-18T03:47:10.325Z,14.90
2018-10-18T03:49:39.460Z,14.86
2018-10-18T03:52:09.181Z,14.82
2018-10-18T03:54:38.382Z,14.83
2018-10-18T03:57:07.533Z,14.84
2018-10-18T03:59:36.789Z,14.77
2018-10-18T04:02:06.347Z,14.97
2018-10-18T04:04:35.991Z,14.96
2018-10-18T04:07:05.805Z,14.90
2018-10-18T04:09:34.895Z,15.03
2018-10-18T04:12:04.147Z,15.12
2018-10-18T04:14:33.247Z,15.12
2018-10-18T04:17:02.428Z,15.11
2018-10-18T04:19:31.483Z,14.99
2018-10-18T04:22:00.689Z,15.00
2018-10-18T04:24:30.076Z,15.07
2018-10-18T04:26:59.194Z,15.10
2018-10-18T04:29:28.409Z,14.93
2018-10-18T04:31:57.762Z,14.90
2018-10-18T04:34:26.838Z,14.94
2018-10-18T04:36:56.906Z,15.03
2018-10-18T04:39:26.400Z,15.04
2018-10-18T04:41:55.905Z,15.10
2018-10-18T04:44:25.098Z,14.99
2018-10-18T04:46:54.199Z,15.19
2018-10-18T04:49:23.291Z,15.11
2018-10-18T04:51:52.831Z,15.25
2018-10-18T04:54:22.123Z,15.20
2018-10-18T04:56:51.397Z,14.98
2018-10-18T04:59:20.585Z,15.55
2018-10-18T05:01:49.734Z,15.84
2018-10-18T05:04:18.800Z,15.81
2018-10-18T05:06:48.382Z,15.10
2018-10-18T05:09:17.608Z,14.87
2018-10-18T05:11:46.987Z,14.68
2018-10-18T05:14:16.480Z,14.59
2018-10-18T05:16:45.968Z,14.45
2018-10-18T05:19:15.289Z,14.46
2018-10-18T05:21:44.763Z,14.42
2018-10-18T05:24:14.325Z,14.40
2018-10-18T05:26:43.830Z,14.31
2018-10-18T05:29:13.010Z,14.29
2018-10-18T05:31:42.205Z,14.33
2018-10-18T05:34:11.490Z,14.45
2018-10-18T05:36:40.718Z,14.41
2018-10-18T05:39:12.212Z,14.46
2018-10-18T05:41:41.528Z,14.57
2018-10-18T05:44:12.702Z,14.60
2018-10-18T05:46:41.920Z,14.56
2018-10-18T05:49:11.501Z,14.57
2018-10-18T05:51:40.606Z,14.65
2018-10-18T05:54:10.169Z,14.76
2018-10-18T05:56:39.611Z,14.78
2018-10-18T05:59:08.828Z,14.83
2018-10-18T06:01:38.954Z,14.96
2018-10-18T06:04:08.469Z,15.03
2018-10-18T06:06:37.640Z,15.43
2018-10-18T06:09:11.843Z,15.76
2018-10-18T06:11:40.940Z,16.42
2018-10-18T06:14:10.086Z,16.53
2018-10-18T06:16:39.304Z,16.66
2018-10-18T06:19:08.499Z,16.73
2018-10-18T06:21:37.581Z,16.94
2018-10-18T06:24:07.469Z,17.03
2018-10-18T06:26:36.953Z,17.09
2018-10-18T06:31:37.009Z,16.72
2018-10-18T06:34:06.727Z,16.93
2018-10-18T06:36:35.926Z,17.27
2018-10-18T06:39:06.814Z,17.31
2018-10-18T06:41:36.035Z,17.65
2018-10-18T06:44:05.161Z,17.70
2018-10-18T06:46:34.684Z,17.89
2018-10-18T06:49:03.870Z,18.12
2018-10-18T06:51:32.884Z,17.96
2018-10-18T06:54:02.079Z,17.96
2018-10-18T06:56:31.188Z,17.82
2018-10-18T06:59:00.324Z,17.97
2018-10-18T07:01:30.006Z,18.20
2018-10-18T07:03:59.391Z,17.65
2018-10-18T07:06:28.582Z,17.64
2018-10-18T07:08:57.844Z,17.82
2018-10-18T07:11:27.357Z,17.39
2018-10-18T07:13:56.502Z,17.94
2018-10-18T07:16:26.357Z,18.22
2018-10-18T07:18:55.490Z,18.25
2018-10-18T07:21:24.598Z,18.08
2018-10-18T07:23:54.103Z,18.63
2018-10-18T07:26:23.205Z,17.98
2018-10-18T07:28:52.386Z,18.37
2018-10-18T07:31:21.866Z,18.40
2018-10-18T07:33:51.007Z,18.28
2018-10-18T07:36:20.242Z,18.66
2018-10-18T07:38:50.056Z,18.75
2018-10-18T07:41:19.340Z,18.67
2018-10-18T07:43:48.292Z,19.00
2018-10-18T07:46:17.785Z,18.85
2018-10-18T07:48:46.915Z,18.61
2018-10-18T07:51:16.017Z,18.93
2018-10-18T07:53:45.227Z,18.77
2018-10-18T07:56:14.305Z,19.23
2018-10-18T07:58:43.465Z,18.64
2018-10-18T08:01:12.884Z,18.87
2018-10-18T08:03:42.029Z,19.05
2018-10-18T08:06:11.097Z,19.06
2018-10-18T08:08:40.476Z,18.93
2018-10-18T08:11:09.635Z,18.62
2018-10-18T08:13:38.686Z,18.50
2018-10-18T08:16:08.089Z,18.46
2018-10-18T08:18:37.185Z,18.82
2018-10-18T08:21:06.904Z,19.21
2018-10-18T08:23:36.302Z,19.08
2018-10-18T08:26:05.472Z,19.04
2018-10-18T08:28:34.706Z,19.50
2018-10-18T08:31:04.181Z,18.91
2018-10-18T08:33:33.307Z,18.79
2018-10-18T08:36:02.344Z,18.46
2018-10-18T08:38:31.817Z,18.93
2018-10-18T08:41:00.905Z,19.12
2018-10-18T08:43:30.014Z,19.24
2018-10-18T08:45:59.356Z,20.03
2018-10-18T08:48:28.477Z,19.71
2018-10-18T08:50:57.519Z,19.11
2018-10-18T08:53:26.947Z,19.21
2018-10-18T08:55:56.001Z,18.82
2018-10-18T08:58:25.218Z,19.14
2018-10-18T09:00:54.880Z,19.30
2018-10-18T09:03:24.083Z,19.40
2018-10-18T09:05:53.308Z,19.53
2018-10-18T09:08:22.774Z,20.17
2018-10-18T09:10:51.880Z,19.75
2018-10-18T09:13:21.207Z,19.83
2018-10-18T09:15:51.108Z,19.76
2018-10-18T09:18:20.933Z,20.42
2018-10-18T09:20:50.144Z,20.73
2018-10-18T09:23:19.713Z,20.62
2018-10-18T09:25:48.963Z,21.09
2018-10-18T09:28:18.384Z,21.21
2018-10-18T09:30:47.799Z,21.35
2018-10-18T09:33:17.015Z,21.36
2018-10-18T09:35:46.134Z,21.33
2018-10-18T09:38:15.753Z,21.24
2018-10-18T09:40:44.890Z,21.42
2018-10-18T09:43:14.063Z,21.33
2018-10-18T09:45:44.653Z,21.29
2018-10-18T09:48:13.907Z,21.53
2018-10-18T09:50:43.220Z,21.50
2018-10-18T09:53:12.455Z,21.56
2018-10-18T09:55:41.656Z,21.26
2018-10-18T09:58:10.832Z,21.28
2018-10-18T10:00:45.157Z,21.01
2018-10-18T10:03:16.435Z,20.77
2018-10-18T10:05:45.621Z,21.07
2018-10-18T10:08:15.363Z,20.29
2018-10-18T10:10:45.301Z,20.14
2018-10-18T10:13:14.494Z,20.76
2018-10-18T10:15:43.790Z,21.47
2018-10-18T10:18:12.979Z,21.41
2018-10-18T10:20:42.066Z,21.17
2018-10-18T10:23:11.270Z,21.47
2018-10-18T10:25:40.369Z,21.67
2018-10-18T10:28:09.473Z,22.13
2018-10-18T10:30:38.765Z,21.87
2018-10-18T10:33:08.070Z,22.15
2018-10-18T10:35:37.157Z,22.23
2018-10-18T10:38:06.797Z,21.36
2018-10-18T10:40:35.916Z,22.65
2018-10-18T10:43:05.337Z,22.77
2018-10-18T10:45:34.733Z,22.94
2018-10-18T10:48:04.015Z,23.03
2018-10-18T10:50:33.100Z,22.45
2018-10-18T10:53:02.741Z,22.46
2018-10-18T10:55:32.230Z,21.51
2018-10-18T10:58:01.663Z,22.68
2018-10-18T11:00:41.240Z,22.95
2018-10-18T11:03:10.611Z,21.88
2018-10-18T11:05:39.667Z,21.55
2018-10-18T11:08:09.219Z,22.50
2018-10-18T11:10:38.228Z,22.98
2018-10-18T11:13:07.342Z,23.18
2018-10-18T11:15:36.739Z,23.38
2018-10-18T11:18:06.069Z,23.46
2018-10-18T11:20:35.102Z,22.71
2018-10-18T11:23:05.331Z,22.59
2018-10-18T11:25:34.584Z,23.05
2018-10-18T11:28:03.689Z,23.29
2018-10-18T11:30:33.238Z,23.92
2018-10-18T11:33:02.840Z,23.14
2018-10-18T11:35:31.954Z,22.74
2018-10-18T11:38:01.372Z,23.62
2018-10-18T11:40:31.462Z,23.57
2018-10-18T11:43:00.543Z,23.75
2018-10-18T11:45:29.723Z,24.01
2018-10-18T11:47:59.012Z,23.37
2018-10-18T11:50:28.571Z,23.69
2018-10-18T11:52:58.615Z,23.76
2018-10-18T11:55:28.288Z,24.02
2018-10-18T11:57:57.793Z,23.99
2018-10-18T12:00:27.002Z,23.85
2018-10-18T12:02:56.169Z,24.09
2018-10-18T12:05:25.240Z,23.20
2018-10-18T12:07:54.816Z,23.28
2018-10-18T12:10:23.868Z,23.59
2018-10-18T12:12:52.983Z,24.04
2018-10-18T12:15:22.356Z,24.11
2018-10-18T12:17:51.402Z,24.44
2018-10-18T12:20:20.627Z,23.10
2018-10-18T12:22:49.972Z,22.85
2018-10-18T12:25:19.265Z,23.55
2018-10-18T12:27:48.402Z,23.70
2018-10-18T12:30:18.142Z,23.56
2018-10-18T12:32:47.289Z,23.84
2018-10-18T12:35:16.416Z,24.08
2018-10-18T12:37:45.902Z,24.16
2018-10-18T12:40:15.185Z,24.87
2018-10-18T12:42:45.701Z,24.72
2018-10-18T12:45:14.928Z,24.53
2018-10-18T12:47:43.944Z,24.07
2018-10-18T12:50:13.042Z,24.84
2018-10-18T12:52:42.494Z,24.93
2018-10-18T12:55:11.529Z,23.42
2018-10-18T12:57:40.614Z,24.21
2018-10-18T13:00:11.042Z,24.44
2018-10-18T13:02:40.165Z,24.34
2018-10-18T13:05:10.890Z,24.38
2018-10-18T13:07:40.042Z,23.92
2018-10-18T13:10:11.165Z,24.31
2018-10-18T13:12:40.555Z,23.40
2018-10-18T13:15:11.256Z,23.97
2018-10-18T13:17:40.435Z,22.90
2018-10-18T13:20:11.031Z,23.27
2018-10-18T13:22:40.496Z,22.73
2018-10-18T13:25:11.545Z,22.79
2018-10-18T13:27:40.698Z,22.61
2018-10-18T13:30:11.111Z,22.62
2018-10-18T13:32:41.075Z,23.08
2018-10-18T13:35:10.920Z,24.00
2018-10-18T13:37:40.412Z,23.66
2018-10-18T13:40:09.923Z,23.41
2018-10-18T13:42:39.540Z,24.13
2018-10-18T13:45:08.921Z,24.49
2018-10-18T13:47:39.055Z,24.10
2018-10-18T13:50:08.443Z,24.31
2018-10-18T13:52:37.855Z,24.37
2018-10-18T13:55:08.032Z,24.21
2018-10-18T13:57:37.491Z,23.03
2018-10-18T14:00:33.461Z,23.73
2018-10-18T14:03:03.010Z,23.73
2018-10-18T14:05:32.390Z,23.90
2018-10-18T14:08:01.831Z,24.04
2018-10-18T14:10:31.047Z,23.97
2018-10-18T14:13:00.258Z,23.77
2018-10-18T14:15:29.774Z,23.96
2018-10-18T14:17:59.034Z,23.63
2018-10-18T14:20:28.125Z,23.89
2018-10-18T14:22:57.610Z,23.86
2018-10-18T14:25:26.760Z,23.69
2018-10-18T14:27:55.866Z,23.79
2018-10-18T14:30:25.160Z,23.52
2018-10-18T14:32:54.545Z,23.91
2018-10-18T14:35:23.788Z,24.04
2018-10-18T14:37:52.897Z,23.58
2018-10-18T14:40:21.916Z,23.60
2018-10-18T14:42:51.107Z,23.87
2018-10-18T14:45:21.285Z,23.60
2018-10-18T14:47:50.527Z,23.92
2018-10-18T14:50:19.870Z,23.87
2018-10-18T14:52:49.284Z,23.78
2018-10-18T14:55:18.315Z,23.62
2018-10-18T14:57:47.597Z,23.66
2018-10-18T15:00:16.803Z,23.67
2018-10-18T15:02:46.104Z,23.52
2018-10-18T15:05:15.309Z,23.52
2018-10-18T15:07:44.590Z,23.34
2018-10-18T15:10:14.544Z,23.12
2018-10-18T15:12:43.947Z,23.24
2018-10-18T15:15:14.775Z,23.16
2018-10-18T15:17:43.976Z,23.15
2018-10-18T15:20:13.832Z,22.98
2018-10-18T15:22:43.523Z,22.81
2018-10-18T15:25:13.524Z,23.17
2018-10-18T15:27:42.983Z,22.66
2018-10-18T15:30:12.709Z,22.66
2018-10-18T15:32:41.854Z,22.65
2018-10-18T15:35:11.931Z,22.71
2018-10-18T15:37:41.993Z,22.42
2018-10-18T15:40:11.268Z,22.35
2018-10-18T15:42:40.383Z,22.33
2018-10-18T15:45:10.481Z,22.35
2018-10-18T15:47:40.486Z,22.54
2018-10-18T15:50:11.621Z,22.29
2018-10-18T15:52:40.718Z,21.70
2018-10-18T15:55:10.253Z,21.16
2018-10-18T15:57:39.761Z,20.95
2018-10-18T16:00:11.091Z,21.01
2018-10-18T16:02:40.606Z,20.89
2018-10-18T16:05:09.836Z,21.02
2018-10-18T16:07:39.078Z,20.69
2018-10-18T16:10:08.745Z,20.65
2018-10-18T16:12:38.224Z,20.67
2018-10-18T16:15:08.684Z,20.59
2018-10-18T16:17:38.568Z,20.56
2018-10-18T16:20:09.215Z,20.62
2018-10-18T16:22:38.899Z,20.76
2018-10-18T16:25:09.426Z,20.77
2018-10-18T16:27:38.620Z,20.71
2018-10-18T16:30:07.926Z,20.73
2018-10-18T16:32:37.361Z,20.72
2018-10-18T16:35:07.147Z,20.63
2018-10-18T16:37:36.327Z,20.60
2018-10-18T16:40:05.887Z,20.63
2018-10-18T16:42:35.334Z,20.49
2018-10-18T16:45:04.628Z,20.47
2018-10-18T16:47:33.837Z,20.50
2018-10-18T16:50:03.046Z,20.52
2018-10-18T16:52:32.106Z,20.53
2018-10-18T16:55:01.556Z,20.57
2018-10-18T16:57:30.606Z,20.60
2018-10-18T16:59:59.780Z,20.52
2018-10-18T17:02:30.243Z,20.53
2018-10-18T17:04:59.719Z,20.68
2018-10-18T17:07:28.835Z,20.62
2018-10-18T17:09:58.454Z,20.40
2018-10-18T17:12:27.546Z,20.39
2018-10-18T17:14:56.901Z,20.31
2018-10-18T17:17:26.386Z,20.28
2018-10-18T17:19:55.748Z,20.29
2018-10-18T17:22:24.908Z,20.36
2018-10-18T17:24:54.016Z,20.47
2018-10-18T17:27:23.315Z,20.45
2018-10-18T17:29:52.433Z,20.25
2018-10-18T17:32:21.768Z,20.21
2018-10-18T17:34:50.811Z,20.30
2018-10-18T17:37:20.056Z,20.31
2018-10-18T17:39:49.576Z,20.34
2018-10-18T17:42:18.889Z,20.21
2018-10-18T17:44:48.094Z,20.17
2018-10-18T17:47:18.766Z,20.29
2018-10-18T17:49:47.808Z,20.32
2018-10-18T17:52:17.071Z,20.24
2018-10-18T17:54:46.213Z,20.27
2018-10-18T17:57:15.357Z,20.05
2018-10-18T17:59:44.654Z,20.10
2018-10-18T18:02:13.918Z,20.03
2018-10-18T18:04:43.027Z,20.01
2018-10-18T18:07:12.104Z,19.98
2018-10-18T18:09:41.534Z,19.97
2018-10-18T18:12:10.697Z,19.89
2018-10-18T18:14:39.870Z,19.88
2018-10-18T18:17:09.713Z,19.92
2018-10-18T18:19:39.192Z,19.92
2018-10-18T18:22:08.448Z,20.01
2018-10-18T18:24:37.857Z,20.09
2018-10-18T18:27:07.255Z,20.07
2018-10-18T18:29:36.506Z,20.10
2018-10-18T18:32:05.851Z,19.96
2018-10-18T18:34:35.000Z,20.01
2018-10-18T18:37:04.284Z,19.92
2018-10-18T18:39:33.520Z,19.81
2018-10-18T18:42:02.651Z,19.62
2018-10-18T18:44:32.083Z,19.64
2018-10-18T18:47:02.082Z,19.44
2018-10-18T18:49:31.571Z,19.55
2018-10-18T18:52:07.034Z,19.43
2018-10-18T18:54:36.125Z,19.39
2018-10-18T18:57:05.372Z,19.38
2018-10-18T18:59:34.648Z,19.35
2018-10-18T19:02:03.816Z,19.21
2018-10-18T19:04:32.842Z,19.08
2018-10-18T19:07:02.448Z,19.03
2018-10-18T19:09:31.625Z,19.22
2018-10-18T19:12:00.778Z,19.02
2018-10-18T19:14:30.326Z,18.77
2018-10-18T19:16:59.594Z,18.80
2018-10-18T19:19:28.754Z,18.70
2018-10-18T19:21:57.904Z,18.66
2018-10-18T19:24:26.995Z,18.70
2018-10-18T19:26:56.181Z,18.79
2018-10-18T19:29:25.343Z,18.84
2018-10-18T19:31:54.523Z,18.74
2018-10-18T19:34:24.409Z,18.58
2018-10-18T19:36:53.915Z,18.71
2018-10-18T19:39:23.078Z,18.77
2018-10-18T19:41:52.253Z,18.78
2018-10-18T19:44:22.039Z,18.63
2018-10-18T19:46:51.219Z,18.42
2018-10-18T19:49:20.568Z,18.51
2018-10-18T19:51:49.761Z,18.50
2018-10-18T19:54:19.095Z,18.48
2018-10-18T19:56:48.253Z,18.53
2018-10-18T19:59:17.905Z,18.50
2018-10-18T20:01:47.083Z,18.55
2018-10-18T20:04:16.463Z,18.61
2018-10-18T20:06:46.325Z,18.77
2018-10-18T20:09:15.479Z,18.83
2018-10-18T20:11:44.613Z,18.70
2018-10-18T20:14:14.445Z,18.67
2018-10-18T20:16:43.576Z,18.65
2018-10-18T20:19:12.881Z,18.62
2018-10-18T20:21:42.083Z,18.65
2018-10-18T20:24:11.481Z,18.56
2018-10-18T20:26:41.628Z,18.59
2018-10-18T20:29:11.825Z,18.66
2018-10-18T20:31:40.989Z,18.79
2018-10-18T20:34:10.405Z,18.64
2018-10-18T20:36:39.619Z,18.55
2018-10-18T20:39:10.186Z,18.53
2018-10-18T20:41:39.398Z,18.55
2018-10-18T20:44:08.691Z,18.58
2018-10-18T20:46:37.881Z,18.61
2018-10-18T20:49:07.008Z,18.61
2018-10-18T20:51:36.202Z,18.33
2018-10-18T20:54:05.571Z,18.40
2018-10-18T20:56:34.623Z,18.38
2018-10-18T20:59:04.561Z,18.20
2018-10-18T21:01:33.715Z,18.19
2018-10-18T21:04:02.913Z,18.18
2018-10-18T21:06:33.432Z,18.27
2018-10-18T21:09:03.098Z,18.28
2018-10-18T21:11:32.444Z,18.11
2018-10-18T21:14:02.108Z,18.07
2018-10-18T21:16:31.213Z,18.08
2018-10-18T21:19:00.357Z,18.14
2018-10-18T21:21:29.868Z,18.05
2018-10-18T21:23:59.006Z,18.03
2018-10-18T21:26:28.618Z,18.13
2018-10-18T21:28:58.101Z,18.12
2018-10-18T21:31:27.205Z,18.10
2018-10-18T21:33:56.365Z,18.09
2018-10-18T21:36:25.916Z,18.00
2018-10-18T21:38:55.418Z,17.90
2018-10-18T21:41:24.732Z,17.97
2018-10-18T21:43:53.904Z,17.88
2018-10-18T21:46:23.092Z,17.85
2018-10-18T21:48:52.311Z,17.84
2018-10-18T21:51:21.440Z,17.70
2018-10-18T21:53:50.522Z,17.46
2018-10-18T21:56:19.656Z,17.44
2018-10-18T21:58:49.470Z,17.65
2018-10-18T22:01:19.046Z,17.77
2018-10-18T22:03:48.188Z,17.79
2018-10-18T22:06:17.979Z,17.59
2018-10-18T22:08:47.437Z,17.74
2018-10-18T22:11:16.774Z,17.81
2018-10-18T22:13:46.303Z,17.86
2018-10-18T22:16:15.415Z,17.70
2018-10-18T22:18:44.543Z,17.70
2018-10-18T22:21:14.094Z,17.66
2018-10-18T22:23:43.196Z,17.83
2018-10-18T22:26:12.327Z,17.79
2018-10-18T22:28:41.802Z,17.69
2018-10-18T22:31:10.962Z,17.72
2018-10-18T22:33:40.107Z,17.74
2018-10-18T22:36:09.619Z,17.70
2018-10-18T22:38:38.767Z,17.74
2018-10-18T22:41:08.539Z,17.97
2018-10-18T22:43:37.902Z,17.70
2018-10-18T22:46:07.242Z,17.58
2018-10-18T22:48:36.326Z,17.32
2018-10-18T22:51:05.898Z,17.43
2018-10-18T22:53:35.050Z,17.40
2018-10-18T22:56:04.260Z,17.84
2018-10-18T22:58:33.696Z,17.39
2018-10-18T23:01:02.917Z,17.16
2018-10-18T23:03:32.169Z,17.14
2018-10-18T23:06:01.549Z,17.10
2018-10-18T23:08:30.621Z,17.18
2018-10-18T23:10:59.778Z,17.29
2018-10-18T23:13:29.289Z,17.24
2018-10-18T23:15:58.531Z,17.18
2018-10-18T23:18:27.680Z,17.18
2018-10-18T23:20:57.361Z,17.02
2018-10-18T23:23:26.472Z,16.88
2018-10-18T23:25:55.584Z,16.85
2018-10-18T23:28:25.302Z,16.79
2018-10-18T23:30:54.459Z,16.82
2018-10-18T23:33:23.921Z,16.94
2018-10-18T23:35:53.332Z,16.71
2018-10-18T23:38:22.663Z,16.62
2018-10-18T23:40:51.887Z,16.44
2018-10-18T23:43:21.356Z,16.20
2018-10-18T23:45:54.104Z,16.13
2018-10-18T23:48:24.156Z,15.87
2018-10-18T23:50:54.162Z,15.62
2018-10-18T23:53:23.552Z,15.62
2018-10-18T23:55:53.305Z,15.49
2018-10-18T23:58:22.556Z,15.37
